Time;durP1;ratioP1;P1;durP2;ratioP2;P2;SDS_P1;SDS_P2;PMS_P1;PMS_P2;Temp;Humidity;BMP_temperature;BMP_pressure;BME280_temperature;BME280_humidity;BME280_pressure;Samples;Min_cycle;Max_cycle;Signal;HPM_P1;HPM_P2
2023/10/08 00:01:34;;;;;;;;;;;18.50;92.90;;;;;;4042303;29;19934;-52
2023/10/08 00:04:18;;;;;;;;;;;18.50;93.20;;;;;;4043173;29;19939;-53
2023/10/08 00:06:59;;;;;;;;;;;18.50;92.90;;;;;;4026740;29;19935;-50
2023/10/08 00:09:40;;;;;;;;;;;18.50;92.90;;;;;;4031628;29;20561;-53
2023/10/08 00:12:20;;;;;;;;;;;18.50;92.80;;;;;;4039581;29;20063;-48
2023/10/08 00:15:07;;;;;;;;;;;18.50;92.90;;;;;;4042009;29;19977;-52
2023/10/08 00:17:50;;;;;;;;;;;18.50;92.90;;;;;;4027338;29;19983;-52
2023/10/08 00:20:35;;;;;;;;;;;18.50;92.90;;;;;;4027374;29;19935;-50
2023/10/08 00:23:17;;;;;;;;;;;18.50;92.90;;;;;;4028053;29;19974;-55
2023/10/08 00:26:04;;;;;;;;;;;18.50;92.90;;;;;;4027239;29;19974;-55
2023/10/08 00:28:47;;;;;;;;;;;18.50;92.90;;;;;;4030616;29;20386;-56
2023/10/08 00:31:37;;;;;;;;;;;18.50;93.00;;;;;;4032013;29;19994;-53
2023/10/08 00:34:20;;;;;;;;;;;18.50;93.00;;;;;;4042879;29;19939;-55
2023/10/08 00:37:01;;;;;;;;;;;18.50;92.90;;;;;;4011572;29;20041;-54
2023/10/08 00:39:43;;;;;;;;;;;18.50;93.00;;;;;;4030846;29;19935;-53
2023/10/08 00:42:25;;;;;;;;;;;18.50;93.00;;;;;;4031105;29;19934;-54
2023/10/08 00:45:06;;;;;;;;;;;18.50;92.90;;;;;;4042704;29;19935;-54
2023/10/08 00:47:48;;;;;;;;;;;18.50;92.90;;;;;;4031555;29;19934;-53
2023/10/08 00:50:42;;;;;;;;;;;18.50;92.90;;;;;;4042757;29;19938;-54
2023/10/08 00:53:23;;;;;;;;;;;18.50;93.00;;;;;;4026158;29;19959;-53
2023/10/08 00:56:12;;;;;;;;;;;18.50;93.00;;;;;;4027113;29;20068;-54
2023/10/08 00:58:54;;;;;;;;;;;18.50;93.00;;;;;;4022230;29;20071;-53
2023/10/08 01:01:35;;;;;;;;;;;18.50;93.00;;;;;;4026973;29;19939;-53
2023/10/08 01:04:22;;;;;;;;;;;18.50;93.10;;;;;;4015981;29;19935;-55
2023/10/08 01:07:13;;;;;;;;;;;18.40;92.90;;;;;;4029042;29;19959;-54
2023/10/08 01:09:59;;;;;;;;;;;18.40;92.90;;;;;;4042552;29;19942;-54
2023/10/08 01:12:54;;;;;;;;;;;18.40;92.90;;;;;;4042728;29;19970;-52
2023/10/08 01:15:37;;;;;;;;;;;18.40;93.00;;;;;;4027933;29;19934;-52
2023/10/08 01:18:28;;;;;;;;;;;18.40;93.00;;;;;;4024406;29;20589;-54
2023/10/08 01:21:17;;;;;;;;;;;18.40;93.10;;;;;;4033404;29;20098;-53
2023/10/08 01:24:00;;;;;;;;;;;18.40;93.10;;;;;;4045433;29;19951;-55
2023/10/08 01:26:41;;;;;;;;;;;18.40;93.10;;;;;;4045801;29;20063;-55
2023/10/08 01:29:24;;;;;;;;;;;18.40;93.10;;;;;;4043307;29;19974;-54
2023/10/08 01:32:11;;;;;;;;;;;18.40;93.00;;;;;;4029825;29;19963;-56
2023/10/08 01:34:51;;;;;;;;;;;18.40;93.10;;;;;;4041438;29;19934;-55
2023/10/08 01:37:33;;;;;;;;;;;18.40;93.10;;;;;;4034056;29;20032;-54
2023/10/08 01:40:16;;;;;;;;;;;18.40;93.10;;;;;;4033930;29;19975;-53
2023/10/08 01:42:59;;;;;;;;;;;18.40;93.10;;;;;;4044935;29;19938;-54
2023/10/08 01:45:42;;;;;;;;;;;18.40;93.10;;;;;;4029481;29;20071;-54
2023/10/08 01:48:27;;;;;;;;;;;18.40;93.00;;;;;;4037217;29;20009;-53
2023/10/08 01:51:11;;;;;;;;;;;18.40;93.10;;;;;;4033101;29;19935;-53
2023/10/08 01:53:54;;;;;;;;;;;18.40;93.10;;;;;;4038278;29;19934;-53
2023/10/08 01:56:36;;;;;;;;;;;18.40;93.10;;;;;;4045240;29;20517;-53
2023/10/08 01:59:17;;;;;;;;;;;18.40;93.10;;;;;;4044081;29;19974;-52
2023/10/08 02:01:57;;;;;;;;;;;18.40;93.10;;;;;;4032284;29;19939;-53
2023/10/08 02:04:39;;;;;;;;;;;18.40;93.10;;;;;;4043967;29;20343;-51
2023/10/08 02:07:21;;;;;;;;;;;18.40;93.10;;;;;;4040760;29;19998;-54
2023/10/08 02:10:01;;;;;;;;;;;18.40;93.50;;;;;;4028138;29;20470;-54
2023/10/08 02:12:44;;;;;;;;;;;18.40;93.10;;;;;;4037524;29;20410;-51
2023/10/08 02:15:24;;;;;;;;;;;18.30;93.10;;;;;;4042494;29;20562;-53
2023/10/08 02:18:05;;;;;;;;;;;18.40;93.10;;;;;;4018561;29;20302;-53
2023/10/08 02:20:48;;;;;;;;;;;18.30;93.10;;;;;;4037858;29;19934;-53
2023/10/08 02:23:29;;;;;;;;;;;18.40;93.10;;;;;;4043721;29;20509;-53
2023/10/08 02:26:10;;;;;;;;;;;18.40;93.50;;;;;;4041043;29;19934;-53
2023/10/08 02:28:52;;;;;;;;;;;18.40;93.10;;;;;;4042754;29;20377;-53
2023/10/08 02:31:33;;;;;;;;;;;18.40;93.20;;;;;;4037297;29;19934;-54
2023/10/08 02:34:14;;;;;;;;;;;18.40;93.20;;;;;;4043425;29;20430;-53
2023/10/08 02:36:56;;;;;;;;;;;18.40;93.20;;;;;;4040021;29;19954;-51
2023/10/08 02:39:40;;;;;;;;;;;18.40;93.20;;;;;;4035845;29;19939;-53
2023/10/08 02:42:22;;;;;;;;;;;18.40;93.60;;;;;;4024370;29;19935;-52
2023/10/08 02:45:05;;;;;;;;;;;18.40;93.20;;;;;;4042716;29;20378;-56
2023/10/08 02:47:46;;;;;;;;;;;18.40;93.20;;;;;;4026994;29;20026;-53
2023/10/08 02:50:27;;;;;;;;;;;18.40;93.20;;;;;;4037880;29;19942;-53
2023/10/08 02:53:10;;;;;;;;;;;18.40;93.20;;;;;;4042721;29;19935;-53
2023/10/08 02:55:51;;;;;;;;;;;18.40;93.20;;;;;;4041229;29;19990;-55
2023/10/08 02:58:36;;;;;;;;;;;18.40;93.20;;;;;;4028416;29;20390;-53
2023/10/08 03:01:18;;;;;;;;;;;18.40;93.20;;;;;;4027247;29;19935;-51
2023/10/08 03:04:04;;;;;;;;;;;18.30;93.20;;;;;;4042007;29;19938;-53
2023/10/08 03:06:49;;;;;;;;;;;18.30;93.20;;;;;;4041484;29;19951;-55
2023/10/08 03:09:32;;;;;;;;;;;18.30;93.20;;;;;;4031313;29;20385;-53
2023/10/08 03:12:13;;;;;;;;;;;18.30;93.20;;;;;;4037241;29;19938;-53
2023/10/08 03:15:12;;;;;;;;;;;18.30;93.20;;;;;;4041993;29;19962;-54
2023/10/08 03:17:57;;;;;;;;;;;18.30;93.20;;;;;;4041250;29;20477;-54
2023/10/08 03:20:42;;;;;;;;;;;18.30;93.20;;;;;;4030265;29;20018;-54
2023/10/08 03:23:33;;;;;;;;;;;18.30;93.20;;;;;;4043152;29;19960;-55
2023/10/08 03:26:32;;;;;;;;;;;18.30;93.20;;;;;;4039054;29;19960;-54
2023/10/08 03:29:15;;;;;;;;;;;18.30;93.20;;;;;;4038155;29;19993;-54
2023/10/08 03:31:57;;;;;;;;;;;18.30;93.20;;;;;;4028559;29;20922;-55
2023/10/08 03:34:43;;;;;;;;;;;18.30;93.30;;;;;;4028703;29;19950;-53
2023/10/08 03:37:30;;;;;;;;;;;18.30;93.30;;;;;;4040481;29;19935;-50
2023/10/08 03:40:25;;;;;;;;;;;18.30;93.20;;;;;;4039289;29;19934;-52
2023/10/08 03:43:15;;;;;;;;;;;18.30;93.30;;;;;;4039898;29;19938;-51
2023/10/08 03:45:59;;;;;;;;;;;18.30;93.30;;;;;;4037325;29;19938;-49
2023/10/08 03:48:41;;;;;;;;;;;18.30;93.40;;;;;;4034646;29;19959;-49
2023/10/08 03:51:27;;;;;;;;;;;18.30;93.40;;;;;;4033169;29;20287;-53
2023/10/08 03:54:15;;;;;;;;;;;18.30;93.50;;;;;;4023751;29;20462;-49
2023/10/08 03:56:57;;;;;;;;;;;18.30;93.50;;;;;;4042345;29;19939;-51
2023/10/08 03:59:40;;;;;;;;;;;18.40;93.50;;;;;;4023067;29;19943;-49
2023/10/08 04:02:23;;;;;;;;;;;18.30;93.40;;;;;;4037579;29;19954;-49
2023/10/08 04:05:18;;;;;;;;;;;18.30;93.40;;;;;;4043046;29;19938;-48
2023/10/08 04:08:16;;;;;;;;;;;18.30;93.40;;;;;;4040191;29;19938;-48
2023/10/08 04:11:12;;;;;;;;;;;18.40;93.50;;;;;;4040302;29;20003;-49
2023/10/08 04:13:53;;;;;;;;;;;18.30;93.50;;;;;;4040050;29;19938;-50
2023/10/08 04:16:36;;;;;;;;;;;18.30;93.90;;;;;;4037041;29;20291;-49
2023/10/08 04:19:18;;;;;;;;;;;18.30;93.50;;;;;;4035327;29;20393;-49
2023/10/08 04:22:00;;;;;;;;;;;18.30;93.50;;;;;;4041555;29;20026;-52
2023/10/08 04:24:43;;;;;;;;;;;18.30;93.50;;;;;;4039600;29;19939;-49
2023/10/08 04:27:27;;;;;;;;;;;18.30;93.50;;;;;;4038457;29;20713;-50
2023/10/08 04:30:10;;;;;;;;;;;18.30;93.50;;;;;;4035358;29;20386;-52
2023/10/08 04:32:52;;;;;;;;;;;18.30;93.50;;;;;;4041877;29;20382;-50
2023/10/08 04:35:36;;;;;;;;;;;18.30;93.50;;;;;;4040189;29;19934;-51
2023/10/08 04:38:18;;;;;;;;;;;18.30;93.50;;;;;;4037991;29;19938;-51
2023/10/08 04:41:08;;;;;;;;;;;18.30;93.50;;;;;;4024566;29;19935;-50
2023/10/08 04:43:49;;;;;;;;;;;18.30;93.50;;;;;;4042236;29;20345;-54
2023/10/08 04:46:46;;;;;;;;;;;18.30;93.60;;;;;;4041965;29;19935;-50
2023/10/08 04:49:28;;;;;;;;;;;18.30;93.50;;;;;;4038627;29;19951;-50
2023/10/08 04:52:14;;;;;;;;;;;18.30;93.50;;;;;;4037837;29;19934;-50
2023/10/08 04:54:56;;;;;;;;;;;18.30;93.50;;;;;;4036483;29;19958;-49
2023/10/08 04:57:38;;;;;;;;;;;18.30;93.50;;;;;;4041349;29;20410;-52
2023/10/08 05:00:40;;;;;;;;;;;18.30;93.50;;;;;;4040136;29;20430;-50
2023/10/08 05:03:23;;;;;;;;;;;18.30;93.50;;;;;;4040098;29;19935;-53
2023/10/08 05:06:09;;;;;;;;;;;18.30;93.90;;;;;;4038417;29;19935;-55
2023/10/08 05:08:58;;;;;;;;;;;18.30;93.50;;;;;;4026503;29;20063;-53
2023/10/08 05:12:07;;;;;;;;;;;18.30;93.50;;;;;;4035541;29;20302;-50
2023/10/08 05:15:21;;;;;;;;;;;18.30;93.60;;;;;;4035703;29;19937;-52
2023/10/08 05:18:13;;;;;;;;;;;18.30;93.60;;;;;;4036032;29;20066;-51
2023/10/08 05:21:16;;;;;;;;;;;18.30;93.50;;;;;;4036732;29;19955;-53
2023/10/08 05:24:14;;;;;;;;;;;18.30;93.50;;;;;;4028476;29;20386;-49
2023/10/08 05:27:26;;;;;;;;;;;18.20;93.90;;;;;;4036916;29;20055;-53
2023/10/08 05:30:16;;;;;;;;;;;18.30;93.50;;;;;;4038051;29;20451;-54
2023/10/08 05:33:23;;;;;;;;;;;18.20;93.60;;;;;;4037966;29;20064;-52
2023/10/08 05:36:10;;;;;;;;;;;18.30;93.60;;;;;;4039957;29;19934;-56
2023/10/08 05:39:00;;;;;;;;;;;18.30;93.60;;;;;;4038731;29;19975;-54
2023/10/08 05:41:51;;;;;;;;;;;18.30;93.60;;;;;;4031283;29;19938;-53
2023/10/08 05:44:39;;;;;;;;;;;18.30;93.50;;;;;;4038580;29;19987;-54
2023/10/08 05:47:38;;;;;;;;;;;18.30;93.50;;;;;;4036719;29;19943;-55
2023/10/08 05:50:38;;;;;;;;;;;18.30;93.90;;;;;;4037287;29;20501;-52
2023/10/08 05:53:43;;;;;;;;;;;18.30;93.70;;;;;;4031390;29;19954;-54
2023/10/08 05:56:40;;;;;;;;;;;18.30;93.50;;;;;;4029885;29;19935;-54
2023/10/08 05:59:27;;;;;;;;;;;18.30;93.50;;;;;;4036453;29;20414;-51
2023/10/08 06:02:27;;;;;;;;;;;18.30;93.80;;;;;;4036650;29;19942;-55
2023/10/08 06:05:20;;;;;;;;;;;18.30;93.40;;;;;;4037930;29;19938;-52
2023/10/08 06:08:14;;;;;;;;;;;18.30;93.40;;;;;;4038741;29;20033;-50
2023/10/08 06:11:00;;;;;;;;;;;18.20;93.40;;;;;;4037419;29;19935;-55
2023/10/08 06:13:50;;;;;;;;;;;18.20;93.30;;;;;;4044436;29;19935;-52
2023/10/08 06:16:41;;;;;;;;;;;18.20;93.30;;;;;;4042527;29;20303;-55
2023/10/08 06:19:23;;;;;;;;;;;18.20;93.40;;;;;;4029592;29;20572;-51
2023/10/08 06:22:05;;;;;;;;;;;18.20;93.40;;;;;;4028606;29;20076;-51
2023/10/08 06:24:46;;;;;;;;;;;18.20;93.40;;;;;;4027647;29;20299;-50
2023/10/08 06:27:32;;;;;;;;;;;18.20;93.40;;;;;;4043732;29;19938;-51
2023/10/08 06:30:16;;;;;;;;;;;18.20;93.40;;;;;;4039797;29;19938;-52
2023/10/08 06:32:57;;;;;;;;;;;18.20;93.40;;;;;;4044324;29;19938;-50
2023/10/08 06:35:44;;;;;;;;;;;18.20;93.50;;;;;;4043884;29;20491;-49
2023/10/08 06:38:26;;;;;;;;;;;18.20;93.50;;;;;;4041520;29;20418;-49
2023/10/08 06:41:15;;;;;;;;;;;18.20;93.50;;;;;;4038071;29;19934;-51
2023/10/08 06:44:02;;;;;;;;;;;18.20;93.50;;;;;;4035524;29;20512;-51
2023/10/08 06:46:44;;;;;;;;;;;18.20;93.50;;;;;;4041119;29;19978;-50
2023/10/08 06:49:25;;;;;;;;;;;18.20;93.40;;;;;;4040769;29;19994;-52
2023/10/08 06:52:10;;;;;;;;;;;18.20;93.40;;;;;;4039940;29;20406;-51
2023/10/08 06:54:53;;;;;;;;;;;18.20;93.40;;;;;;4040735;29;19963;-53
2023/10/08 06:57:33;;;;;;;;;;;18.20;93.30;;;;;;4040666;29;20394;-50
2023/10/08 07:00:37;;;;;;;;;;;18.20;93.40;;;;;;4040712;29;19939;-50
2023/10/08 07:03:17;;;;;;;;;;;18.20;93.40;;;;;;4037688;29;19935;-50
2023/10/08 07:05:59;;;;;;;;;;;18.20;93.50;;;;;;4040367;29;20083;-53
2023/10/08 07:08:42;;;;;;;;;;;18.20;93.50;;;;;;4043357;29;19953;-53
2023/10/08 07:11:26;;;;;;;;;;;18.20;93.60;;;;;;4042666;29;20623;-54
2023/10/08 07:14:10;;;;;;;;;;;18.20;93.80;;;;;;4041986;29;20395;-54
2023/10/08 07:16:54;;;;;;;;;;;18.20;93.80;;;;;;4040969;29;20310;-52
2023/10/08 07:19:38;;;;;;;;;;;18.20;93.90;;;;;;4042690;29;19943;-52
2023/10/08 07:22:22;;;;;;;;;;;18.20;94.00;;;;;;4040620;29;19934;-53
2023/10/08 07:25:08;;;;;;;;;;;18.20;94.00;;;;;;4039071;29;19934;-53
2023/10/08 07:27:50;;;;;;;;;;;18.20;94.00;;;;;;4042233;29;19947;-57
2023/10/08 07:30:32;;;;;;;;;;;18.20;94.00;;;;;;4036788;29;20485;-52
2023/10/08 07:33:17;;;;;;;;;;;18.20;94.10;;;;;;4042706;29;19951;-54
2023/10/08 07:36:04;;;;;;;;;;;18.20;93.90;;;;;;4042439;29;20291;-54
2023/10/08 07:38:45;;;;;;;;;;;18.20;93.90;;;;;;4038819;29;19938;-56
2023/10/08 07:41:26;;;;;;;;;;;18.20;93.80;;;;;;4038227;29;19935;-53
2023/10/08 07:44:08;;;;;;;;;;;18.20;93.70;;;;;;4038009;29;20040;-51
2023/10/08 07:46:49;;;;;;;;;;;18.20;93.70;;;;;;4030799;29;19991;-53
2023/10/08 07:49:30;;;;;;;;;;;18.20;93.60;;;;;;4028257;29;19974;-56
2023/10/08 07:52:15;;;;;;;;;;;18.20;93.60;;;;;;4040027;29;19935;-53
2023/10/08 07:54:57;;;;;;;;;;;18.20;93.50;;;;;;4041260;29;19938;-52
2023/10/08 07:57:37;;;;;;;;;;;18.20;93.50;;;;;;4036199;29;19978;-54
2023/10/08 08:00:22;;;;;;;;;;;18.20;93.50;;;;;;4039576;29;19938;-54
2023/10/08 08:03:04;;;;;;;;;;;18.20;93.50;;;;;;4042579;29;20442;-55
2023/10/08 08:05:46;;;;;;;;;;;18.20;93.50;;;;;;4039301;29;20787;-55
2023/10/08 08:08:27;;;;;;;;;;;18.20;93.40;;;;;;4043697;29;19933;-53
2023/10/08 08:11:11;;;;;;;;;;;18.20;93.40;;;;;;4034448;29;20383;-51
2023/10/08 08:13:52;;;;;;;;;;;18.20;93.70;;;;;;4038851;29;19938;-53
2023/10/08 08:16:36;;;;;;;;;;;18.20;93.30;;;;;;4013336;29;19934;-53
2023/10/08 08:19:24;;;;;;;;;;;18.20;93.70;;;;;;4025833;29;19969;-52
2023/10/08 08:22:04;;;;;;;;;;;18.20;93.30;;;;;;4024896;29;19995;-55
2023/10/08 08:24:46;;;;;;;;;;;18.20;93.30;;;;;;4042813;29;20630;-55
2023/10/08 08:27:31;;;;;;;;;;;18.20;93.30;;;;;;4041236;29;19969;-54
2023/10/08 08:30:15;;;;;;;;;;;18.20;93.20;;;;;;4037907;29;19938;-55
2023/10/08 08:32:58;;;;;;;;;;;18.20;93.20;;;;;;4035944;29;19938;-54
2023/10/08 08:35:39;;;;;;;;;;;18.20;93.20;;;;;;4041663;29;20590;-56
2023/10/08 08:38:20;;;;;;;;;;;18.20;93.20;;;;;;4042239;29;19934;-54
2023/10/08 08:41:06;;;;;;;;;;;18.20;93.20;;;;;;4028911;29;19938;-53
2023/10/08 08:43:56;;;;;;;;;;;18.20;93.20;;;;;;4036289;29;19979;-51
2023/10/08 08:46:39;;;;;;;;;;;18.30;93.20;;;;;;4034695;29;19938;-59
2023/10/08 08:49:22;;;;;;;;;;;18.20;93.20;;;;;;4028960;29;19970;-58
2023/10/08 08:52:02;;;;;;;;;;;18.20;93.10;;;;;;4035324;29;19938;-58
2023/10/08 08:54:43;;;;;;;;;;;18.30;93.10;;;;;;4035535;29;19942;-59
2023/10/08 08:57:24;;;;;;;;;;;18.30;93.10;;;;;;4041233;29;20064;-58
2023/10/08 09:00:10;;;;;;;;;;;18.30;93.10;;;;;;4037218;29;19942;-54
2023/10/08 09:02:52;;;;;;;;;;;18.30;93.10;;;;;;4038317;29;19967;-55
2023/10/08 09:05:34;;;;;;;;;;;18.30;93.10;;;;;;4024165;29;19959;-55
2023/10/08 09:08:18;;;;;;;;;;;18.30;93.10;;;;;;4024464;29;20360;-55
2023/10/08 09:11:00;;;;;;;;;;;18.30;93.10;;;;;;4022649;29;20061;-56
2023/10/08 09:13:42;;;;;;;;;;;18.30;93.40;;;;;;4020954;29;20070;-56
2023/10/08 09:16:24;;;;;;;;;;;18.30;93.00;;;;;;4025681;29;20056;-56
2023/10/08 09:19:11;;;;;;;;;;;18.30;92.90;;;;;;4025942;29;19935;-54
2023/10/08 09:22:04;;;;;;;;;;;18.30;92.90;;;;;;4013895;29;19963;-58
2023/10/08 09:24:46;;;;;;;;;;;18.30;92.80;;;;;;4011284;29;19964;-58
2023/10/08 09:27:27;;;;;;;;;;;18.30;92.80;;;;;;4020618;29;19979;-59
2023/10/08 09:30:09;;;;;;;;;;;18.40;92.80;;;;;;4018046;29;19978;-58
2023/10/08 09:32:50;;;;;;;;;;;18.40;92.70;;;;;;4023504;29;19942;-59
2023/10/08 09:35:34;;;;;;;;;;;18.40;92.70;;;;;;4025231;29;19934;-59
2023/10/08 09:38:22;;;;;;;;;;;18.50;92.60;;;;;;4009140;29;19947;-59
2023/10/08 09:41:04;;;;;;;;;;;18.50;92.30;;;;;;4022607;29;19942;-58
2023/10/08 09:43:46;;;;;;;;;;;18.50;91.80;;;;;;4027961;29;19982;-58
2023/10/08 09:46:30;;;;;;;;;;;18.50;91.30;;;;;;4025934;29;19974;-58
2023/10/08 09:49:13;;;;;;;;;;;18.40;91.00;;;;;;4023647;29;19982;-58
2023/10/08 09:51:54;;;;;;;;;;;18.50;90.90;;;;;;4016171;29;20067;-58
2023/10/08 09:54:43;;;;;;;;;;;18.50;91.40;;;;;;4027843;29;20031;-58
2023/10/08 09:57:26;;;;;;;;;;;18.50;91.10;;;;;;4027114;29;20394;-58
2023/10/08 10:00:14;;;;;;;;;;;18.50;91.20;;;;;;4024569;29;20056;-58
2023/10/08 10:02:55;;;;;;;;;;;18.50;91.10;;;;;;4027555;29;19950;-58
2023/10/08 10:05:36;;;;;;;;;;;18.50;90.80;;;;;;4028485;29;20023;-57
2023/10/08 10:08:17;;;;;;;;;;;18.50;90.80;;;;;;4040174;29;19934;-57
2023/10/08 10:11:00;;;;;;;;;;;18.50;91.00;;;;;;4039646;29;20413;-58
2023/10/08 10:13:44;;;;;;;;;;;18.50;90.70;;;;;;4036921;29;19938;-58
2023/10/08 10:16:24;;;;;;;;;;;18.50;90.60;;;;;;4043177;29;20478;-56
2023/10/08 10:19:06;;;;;;;;;;;18.50;90.30;;;;;;4040080;29;20063;-58
2023/10/08 10:21:48;;;;;;;;;;;18.50;90.30;;;;;;4042732;29;19939;-58
2023/10/08 10:24:33;;;;;;;;;;;18.50;90.30;;;;;;4024806;29;20078;-57
2023/10/08 10:27:16;;;;;;;;;;;18.50;90.40;;;;;;4043460;29;19939;-57
2023/10/08 10:30:08;;;;;;;;;;;18.50;90.50;;;;;;4043717;29;19941;-58
2023/10/08 10:32:52;;;;;;;;;;;18.50;90.40;;;;;;4038806;29;19954;-58
2023/10/08 10:35:33;;;;;;;;;;;18.50;90.30;;;;;;4037544;29;20527;-54
2023/10/08 10:38:17;;;;;;;;;;;18.50;90.30;;;;;;4027042;29;19943;-57
2023/10/08 10:40:58;;;;;;;;;;;18.60;90.20;;;;;;4030248;29;19934;-56
2023/10/08 10:43:52;;;;;;;;;;;18.60;90.00;;;;;;4039418;29;20078;-54
2023/10/08 10:46:36;;;;;;;;;;;18.60;89.80;;;;;;4037593;29;19938;-57
2023/10/08 10:49:22;;;;;;;;;;;18.60;90.10;;;;;;4026326;29;19982;-57
2023/10/08 10:52:05;;;;;;;;;;;18.60;89.50;;;;;;4036546;29;19934;-57
2023/10/08 10:54:58;;;;;;;;;;;18.60;89.60;;;;;;4041312;29;19934;-55
2023/10/08 10:57:41;;;;;;;;;;;18.60;89.30;;;;;;4017841;29;19964;-57
2023/10/08 11:03:24;;;;;;;;;;;18.60;89.00;;;;;;4033801;29;19944;-57
2023/10/08 11:06:15;;;;;;;;;;;18.60;87.40;;;;;;4037583;29;19950;-58
2023/10/08 11:08:56;;;;;;;;;;;18.60;87.70;;;;;;4042375;29;19935;-58
2023/10/08 11:11:43;;;;;;;;;;;18.60;87.60;;;;;;4040594;29;19938;-58
2023/10/08 11:14:24;;;;;;;;;;;18.60;87.50;;;;;;4038782;29;19938;-58
2023/10/08 11:17:11;;;;;;;;;;;18.70;86.70;;;;;;4038934;29;19935;-58
2023/10/08 11:19:52;;;;;;;;;;;18.60;86.90;;;;;;4042333;29;20071;-59
2023/10/08 11:22:42;;;;;;;;;;;18.60;87.30;;;;;;4041238;29;20019;-58
2023/10/08 11:25:27;;;;;;;;;;;18.70;87.60;;;;;;4040120;29;19935;-58
2023/10/08 11:28:11;;;;;;;;;;;18.70;88.50;;;;;;4037881;29;20362;-58
2023/10/08 11:30:53;;;;;;;;;;;18.70;87.80;;;;;;4035706;29;19938;-57
2023/10/08 11:33:37;;;;;;;;;;;18.70;87.80;;;;;;4042525;29;20064;-58
2023/10/08 11:36:19;;;;;;;;;;;18.70;86.80;;;;;;4027748;29;19934;-57
2023/10/08 11:39:11;;;;;;;;;;;18.70;86.40;;;;;;4035840;29;21577;-58
2023/10/08 11:42:02;;;;;;;;;;;18.70;86.20;;;;;;4036487;29;19970;-58
2023/10/08 11:44:44;;;;;;;;;;;18.70;86.70;;;;;;4026624;29;20007;-58
2023/10/08 11:47:30;;;;;;;;;;;18.70;86.60;;;;;;4042071;29;19934;-57
2023/10/08 11:50:17;;;;;;;;;;;18.70;86.90;;;;;;4040880;29;20579;-59
2023/10/08 11:53:02;;;;;;;;;;;18.70;86.10;;;;;;4038656;29;20426;-58
2023/10/08 11:55:44;;;;;;;;;;;18.70;86.70;;;;;;4037402;29;19934;-59
2023/10/08 11:58:37;;;;;;;;;;;18.70;86.20;;;;;;4036237;29;19934;-58
2023/10/08 12:01:20;;;;;;;;;;;18.70;84.80;;;;;;4033693;29;24202;-58
2023/10/08 12:04:01;;;;;;;;;;;18.70;84.70;;;;;;4042113;29;19938;-58
2023/10/08 12:06:46;;;;;;;;;;;18.70;85.50;;;;;;4040553;29;19986;-58
2023/10/08 12:09:27;;;;;;;;;;;18.70;85.20;;;;;;4038398;29;19942;-58
2023/10/08 12:12:09;;;;;;;;;;;18.80;85.00;;;;;;4042133;29;20292;-59
2023/10/08 12:14:54;;;;;;;;;;;18.80;83.70;;;;;;4015028;29;19974;-56
2023/10/08 12:17:39;;;;;;;;;;;18.80;83.70;;;;;;4019139;29;19935;-58
2023/10/08 12:20:23;;;;;;;;;;;18.80;84.80;;;;;;4039979;29;20071;-59
2023/10/08 12:23:10;;;;;;;;;;;18.80;85.40;;;;;;4039630;29;19934;-58
2023/10/08 12:25:52;;;;;;;;;;;18.80;85.60;;;;;;4041010;29;19982;-57
2023/10/08 12:28:34;;;;;;;;;;;18.80;86.00;;;;;;4023776;29;20409;-58
2023/10/08 12:31:15;;;;;;;;;;;18.80;86.10;;;;;;4041678;29;20057;-58
2023/10/08 12:34:00;;;;;;;;;;;18.90;87.00;;;;;;4040415;29;20069;-58
2023/10/08 12:36:42;;;;;;;;;;;18.90;86.40;;;;;;4036576;29;19942;-58
2023/10/08 12:39:28;;;;;;;;;;;18.90;85.50;;;;;;4030515;29;20075;-61
2023/10/08 12:42:09;;;;;;;;;;;18.90;84.70;;;;;;4029183;29;19950;-61
2023/10/08 12:44:50;;;;;;;;;;;18.90;84.60;;;;;;4040914;29;19959;-55
2023/10/08 12:47:32;;;;;;;;;;;18.90;85.10;;;;;;4025286;29;19935;-57
2023/10/08 12:50:15;;;;;;;;;;;19.00;85.00;;;;;;4042391;29;19934;-57
2023/10/08 12:52:56;;;;;;;;;;;19.00;85.20;;;;;;4039610;29;20006;-57
2023/10/08 12:55:39;;;;;;;;;;;19.00;86.00;;;;;;4042982;29;19938;-56
2023/10/08 12:58:25;;;;;;;;;;;19.00;86.30;;;;;;4041969;29;19934;-58
2023/10/08 13:01:07;;;;;;;;;;;19.00;86.40;;;;;;4038521;29;19935;-56
2023/10/08 13:03:48;;;;;;;;;;;19.00;86.40;;;;;;4036494;29;19938;-54
2023/10/08 13:06:30;;;;;;;;;;;19.10;87.20;;;;;;4034741;29;19933;-57
2023/10/08 13:09:12;;;;;;;;;;;19.10;86.10;;;;;;4027495;29;19935;-55
2023/10/08 13:11:55;;;;;;;;;;;19.10;85.90;;;;;;4022881;29;19935;-56
2023/10/08 13:14:36;;;;;;;;;;;19.20;85.90;;;;;;4022745;29;20459;-57
2023/10/08 13:17:19;;;;;;;;;;;19.10;85.90;;;;;;3999485;29;20076;-57
2023/10/08 13:20:00;;;;;;;;;;;19.10;85.80;;;;;;4027900;29;19935;-58
2023/10/08 13:22:41;;;;;;;;;;;19.10;85.70;;;;;;4025271;29;19939;-57
2023/10/08 13:25:22;;;;;;;;;;;19.10;86.00;;;;;;4028746;29;19938;-56
2023/10/08 13:28:07;;;;;;;;;;;19.20;86.00;;;;;;4029325;29;19938;-58
2023/10/08 13:30:52;;;;;;;;;;;19.10;86.10;;;;;;4021893;29;19935;-56
2023/10/08 13:33:32;;;;;;;;;;;19.20;86.10;;;;;;4023133;29;19955;-54
2023/10/08 13:36:14;;;;;;;;;;;19.20;86.20;;;;;;4022375;29;19939;-53
2023/10/08 13:38:58;;;;;;;;;;;19.20;85.90;;;;;;4020877;29;19935;-56
2023/10/08 13:41:41;;;;;;;;;;;19.20;87.10;;;;;;4027483;29;19935;-56
2023/10/08 13:44:28;;;;;;;;;;;19.20;86.30;;;;;;4023686;29;20423;-58
2023/10/08 13:47:14;;;;;;;;;;;19.20;86.40;;;;;;4023285;29;19998;-61
2023/10/08 13:49:57;;;;;;;;;;;19.20;86.30;;;;;;4021958;29;19970;-58
2023/10/08 13:52:39;;;;;;;;;;;19.20;86.40;;;;;;4027206;29;20023;-60
2023/10/08 13:55:19;;;;;;;;;;;19.20;85.50;;;;;;4028135;29;20446;-59
2023/10/08 13:58:00;;;;;;;;;;;19.20;85.80;;;;;;4022875;29;20086;-58
2023/10/08 14:00:43;;;;;;;;;;;19.20;86.10;;;;;;4028456;29;19963;-58
2023/10/08 14:03:24;;;;;;;;;;;19.20;86.20;;;;;;4026644;29;20023;-58
2023/10/08 14:06:05;;;;;;;;;;;19.20;86.20;;;;;;4024083;29;19942;-59
2023/10/08 14:08:51;;;;;;;;;;;19.30;86.40;;;;;;4022727;29;19939;-57
2023/10/08 14:11:33;;;;;;;;;;;19.30;86.30;;;;;;4028802;29;19942;-57
2023/10/08 14:14:16;;;;;;;;;;;19.20;86.40;;;;;;4025922;29;19935;-57
2023/10/08 14:17:03;;;;;;;;;;;19.20;86.50;;;;;;4023992;29;19970;-57
2023/10/08 14:19:51;;;;;;;;;;;19.30;86.50;;;;;;4021836;29;19935;-56
2023/10/08 14:22:32;;;;;;;;;;;19.20;86.50;;;;;;4028506;29;19935;-58
2023/10/08 14:25:15;;;;;;;;;;;19.20;86.30;;;;;;4024852;29;19939;-57
2023/10/08 14:28:04;;;;;;;;;;;19.20;85.90;;;;;;4023842;29;20023;-56
2023/10/08 14:30:46;;;;;;;;;;;19.20;86.10;;;;;;4020764;29;19942;-55
2023/10/08 14:33:32;;;;;;;;;;;19.20;86.00;;;;;;4023663;29;20474;-58
2023/10/08 14:45:18;;;;;;;;;;;19.20;86.40;;;;;;3999769;29;19939;-57
2023/10/08 14:48:00;;;;;;;;;;;19.20;86.40;;;;;;4025410;29;19935;-56
2023/10/08 14:50:42;;;;;;;;;;;19.20;86.40;;;;;;4021837;29;19935;-56
2023/10/08 14:53:24;;;;;;;;;;;19.20;85.70;;;;;;4023366;29;19942;-55
2023/10/08 14:56:05;;;;;;;;;;;19.20;85.60;;;;;;4026808;29;19938;-56
2023/10/08 14:58:47;;;;;;;;;;;19.20;85.90;;;;;;4022886;29;19938;-58
2023/10/08 15:01:28;;;;;;;;;;;19.20;86.10;;;;;;4022336;29;20374;-56
2023/10/08 15:04:11;;;;;;;;;;;19.20;85.70;;;;;;4018686;29;19950;-57
2023/10/08 15:06:53;;;;;;;;;;;19.20;86.00;;;;;;4025386;29;19974;-57
2023/10/08 15:09:34;;;;;;;;;;;19.20;86.20;;;;;;4024213;29;19935;-57
2023/10/08 15:12:17;;;;;;;;;;;19.20;86.50;;;;;;4021940;29;19938;-54
2023/10/08 15:14:58;;;;;;;;;;;19.20;86.70;;;;;;4026819;29;20356;-55
2023/10/08 15:17:38;;;;;;;;;;;19.20;86.90;;;;;;4025466;29;20000;-55
2023/10/08 15:20:20;;;;;;;;;;;19.20;87.60;;;;;;4011599;29;19954;-54
2023/10/08 15:23:03;;;;;;;;;;;19.20;87.80;;;;;;4019602;29;19945;-55
2023/10/08 15:25:43;;;;;;;;;;;19.20;88.00;;;;;;4025793;29;19935;-52
2023/10/08 15:28:24;;;;;;;;;;;19.10;88.10;;;;;;4023470;29;19939;-55
2023/10/08 15:31:05;;;;;;;;;;;19.10;88.30;;;;;;4003425;29;19944;-52
2023/10/08 15:33:46;;;;;;;;;;;19.10;88.30;;;;;;4017428;29;19935;-53
2023/10/08 15:36:27;;;;;;;;;;;19.10;88.40;;;;;;4026119;29;20454;-55
2023/10/08 15:39:10;;;;;;;;;;;19.10;88.40;;;;;;4026623;29;19935;-52
2023/10/08 15:41:52;;;;;;;;;;;19.10;88.30;;;;;;4010927;29;19935;-51
2023/10/08 15:44:33;;;;;;;;;;;19.10;88.30;;;;;;4019505;29;19935;-52
2023/10/08 15:47:14;;;;;;;;;;;19.10;88.30;;;;;;4026569;29;20746;-54
2023/10/08 15:49:55;;;;;;;;;;;19.10;88.30;;;;;;4026369;29;19943;-52
2023/10/08 15:52:35;;;;;;;;;;;19.10;88.20;;;;;;4020723;29;20030;-53
2023/10/08 15:55:21;;;;;;;;;;;19.10;88.30;;;;;;4024213;29;19935;-52
2023/10/08 15:58:03;;;;;;;;;;;19.00;88.20;;;;;;4024624;29;20288;-55
2023/10/08 16:00:43;;;;;;;;;;;19.00;88.60;;;;;;4022158;29;19984;-54
2023/10/08 16:03:24;;;;;;;;;;;19.00;88.90;;;;;;4019951;29;19991;-54
2023/10/08 16:06:06;;;;;;;;;;;19.10;89.30;;;;;;4025000;29;20006;-53
2023/10/08 16:08:47;;;;;;;;;;;19.00;90.20;;;;;;4021555;29;19949;-55